Date,TemperatureHighF,TemperatureAvgF,TemperatureLowF,DewpointHighF,DewpointAvgF,DewpointLowF,HumidityHigh,HumidityAvg,HumidityLow,PressureMaxIn,PressureMinIn,WindSpeedMaxMPH,WindSpeedAvgMPH,GustSpeedMaxMPH,PrecipitationSumIn
2014-1-1,50.1,39.1,28.3,40.8,33.6,26.8,96,81,60,30.35,30.05,13,2,13,0.00
2014-1-2,49.4,38.3,23.4,49.1,35.1,14.9,99,88,69,30.29,29.84,34,7,34,0.34
2014-1-3,33.2,25.1,18.3,17.3,14.6,12.0,79,65,43,30.50,30.29,19,4,19,0.00
2014-1-4,46.7,34.7,24.7,32.9,23.6,15.0,85,65,46,30.38,30.13,18,4,18,0.00
2014-1-5,54.1,41.9,27.5,53.0,38.9,26.0,96,89,83,30.13,29.72,31,6,33,0.24
2014-1-6,27.4,16.7,9.0,26.2,9.5,0.8,95,73,55,30.57,30.00,29,10,29,0.00
2014-1-7,23.2,13.8,5.2,10.2,4.0,-0.7,80,65,44,30.63,30.52,19,2,19,0.00
2014-1-8,43.4,28.2,12.8,18.9,13.6,9.3,90,59,29,30.61,30.43,9,1,9,0.00
2014-1-9,47.7,40.1,28.0,42.1,27.3,12.4,97,62,42,30.47,30.30,15,3,15,0.00
2014-1-10,52.3,45.6,40.6,52.0,45.0,40.0,99,98,96,30.30,29.84,15,3,15,0.02
2014-1-11,62.2,54.4,42.7,61.3,46.2,34.8,100,77,38,29.99,29.67,19,7,26,0.64
2014-1-12,60.1,46.9,35.6,42.6,36.2,27.6,98,70,31,30.17,29.98,13,2,13,0.00
2014-1-13,50.2,47.3,44.6,49.9,42.6,35.7,99,84,66,30.09,29.80,22,4,22,0.30
2014-1-14,57.7,49.2,43.3,50.7,40.4,28.4,99,75,38,30.00,29.80,16,4,16,0.04
2014-1-15,45.1,38.1,25.8,38.2,24.0,14.3,91,58,31,30.13,29.96,16,6,23,0.01
2014-1-16,47.7,34.1,20.7,25.9,20.5,17.5,89,60,34,30.15,29.92,16,3,18,0.00
2014-1-17,44.9,36.5,28.4,32.5,24.6,17.9,85,63,41,30.14,29.92,26,6,26,0.00
2014-1-18,47.2,35.6,21.4,24.7,16.9,12.4,81,50,27,30.23,29.90,26,5,26,0.00
2014-1-19,51.2,42.5,36.5,31.4,28.5,24.4,72,58,42,30.12,29.89,22,5,26,0.00
2014-1-20,62.0,47.3,32.8,32.3,29.9,26.6,81,54,31,30.05,29.83,15,3,15,0.00
2014-1-21,50.0,35.2,18.6,33.3,24.4,10.6,71,65,50,30.15,29.75,36,9,36,0.00
2014-1-22,36.1,24.0,15.1,14.2,9.3,3.1,81,57,26,30.23,30.09,13,3,15,0.00
2014-1-23,32.4,24.2,15.5,19.5,10.8,-0.2,77,57,39,30.68,30.21,20,5,20,0.00
2014-1-24,31.4,19.2,6.3,7.2,3.6,0.5,85,53,29,30.70,30.22,15,1,15,0.00
2014-1-25,44.7,32.4,19.1,24.0,15.1,3.7,67,49,37,30.23,29.90,24,5,24,0.00
2014-1-26,56.4,43.8,25.8,32.9,28.9,21.4,87,58,39,30.00,29.81,24,4,24,0.00
2014-1-27,50.0,39.0,22.8,37.7,21.0,2.1,79,50,28,30.24,29.81,24,6,24,0.00
2014-1-28,22.7,19.0,14.0,15.4,9.0,3.0,88,66,42,30.38,30.22,19,7,19,0.00
2014-1-29,29.0,18.3,7.8,7.6,4.1,1.0,79,55,33,30.46,30.36,18,2,18,0.00
2014-1-30,40.9,25.0,5.0,16.6,9.2,2.0,91,56,25,30.39,30.17,16,2,16,0.00
2014-1-31,56.2,38.4,21.4,33.2,21.2,15.8,84,52,32,30.25,30.10,11,1,11,0.00
2014-2-1,58.9,46.9,33.1,47.1,36.0,16.7,93,67,38,30.14,30.03,18,3,18,0.00
2014-2-2,62.4,54.0,43.9,62.3,53.3,42.2,100,97,90,30.07,29.76,27,4,27,1.23
2014-2-3,45.4,38.8,32.8,42.3,37.3,32.0,98,94,82,30.21,29.84,22,4,27,0.69
2014-2-4,51.9,43.6,32.0,51.8,42.8,31.2,100,97,92,30.19,29.79,22,4,22,0.19
2014-2-5,54.4,38.8,27.9,54.4,36.1,23.1,100,90,80,30.34,29.79,22,8,22,0.31
2014-2-6,34.6,29.7,25.9,26.4,24.8,22.9,92,82,69,30.42,30.29,20,5,20,0.00
2014-2-7,40.4,31.2,22.9,30.2,26.5,21.6,96,83,63,30.42,30.26,12,1,12,0.00
2014-2-8,50.3,40.3,32.9,39.4,34.0,29.3,90,79,62,30.27,30.12,13,1,13,0.00
2014-2-9,55.8,43.8,34.9,43.8,38.7,33.6,97,83,62,30.17,30.04,18,2,18,0.00
2014-2-10,40.2,38.0,34.9,38.6,36.8,33.9,97,95,92,30.20,30.07,13,4,13,0.01
2014-2-11,37.2,34.5,28.7,33.7,31.7,27.0,96,90,79,30.28,30.16,13,5,16,0.20
2014-2-12,35.1,33.0,31.5,33.5,31.9,30.0,98,96,93,30.18,29.85,23,4,23,0.38
2014-2-13,44.1,35.6,30.0,32.3,30.8,28.7,98,83,57,29.93,29.82,7,1,13,0.52
2014-2-14,51.4,41.9,30.5,43.2,36.4,28.6,96,82,62,29.92,29.69,34,3,34,0.26
2014-2-15,41.9,33.8,29.4,38.3,26.5,21.7,96,76,47,30.17,29.76,27,5,34,0.00
2014-2-16,61.2,44.6,29.8,36.8,30.9,25.7,91,62,31,30.15,30.07,18,2,18,0.00
2014-2-17,60.1,49.6,32.8,55.4,43.5,30.4,99,81,48,30.16,30.00,22,3,22,0.08
2014-2-18,68.3,55.1,37.4,59.4,46.9,35.7,98,76,43,30.20,29.96,20,4,20,0.01
2014-2-19,65.4,61.9,59.2,60.4,58.9,57.4,95,90,82,30.02,29.93,25,4,26,0.00
2014-2-20,69.0,64.1,59.4,63.7,61.2,57.4,96,90,81,29.97,29.73,28,8,28,0.54
2014-2-21,63.4,48.0,37.1,61.7,30.2,21.8,96,53,28,30.11,29.79,25,3,30,1.11
2014-2-22,65.2,49.8,33.2,39.4,29.1,21.0,95,51,19,30.19,30.01,12,2,14,0.00
2014-2-23,71.5,57.0,42.1,40.3,35.1,26.9,80,46,25,30.04,29.90,13,2,13,0.00
2014-2-24,57.7,46.9,36.7,39.2,33.3,27.7,90,62,33,30.18,30.01,22,3,22,0.00
2014-2-25,56.4,45.5,35.7,43.3,36.1,27.8,95,71,53,30.13,29.96,12,2,21,0.16
2014-2-26,41.9,34.9,25.2,32.8,21.1,10.0,77,58,35,30.06,29.92,22,5,22,0.00
2014-2-27,45.6,32.6,21.2,23.0,15.0,10.2,82,50,29,30.09,30.00,11,3,24,0.00
2014-2-28,53.5,34.3,23.8,38.4,23.2,13.8,92,71,24,30.16,30.04,11,1,16,0.05
2014-3-1,60.5,50.6,44.4,46.2,39.5,33.4,74,66,55,30.23,30.11,13,2,13,0.00
2014-3-2,73.8,61.4,50.2,56.5,50.1,43.1,79,67,50,30.15,29.80,23,5,23,0.00
2014-3-3,63.9,36.0,26.9,58.9,33.6,24.2,98,91,71,30.25,29.74,32,7,32,0.58
2014-3-4,42.2,35.7,27.2,36.7,32.2,24.8,96,87,76,30.23,30.12,11,2,13,0.00
2014-3-5,59.7,44.8,32.5,40.0,35.7,30.8,97,73,43,30.19,30.04,16,2,16,0.00
2014-3-6,47.9,41.7,37.2,41.3,34.2,23.1,96,77,38,30.11,29.98,20,4,22,0.11
2014-3-7,63.2,49.3,38.6,45.3,39.0,35.9,97,72,38,30.06,29.93,15,2,15,0.01
2014-3-8,67.1,53.6,38.3,46.4,42.7,35.7,97,69,42,30.15,30.01,20,2,20,0.00
2014-3-9,65.8,54.3,41.9,46.3,44.3,40.0,96,70,47,30.20,30.10,19,3,19,0.00
2014-3-10,70.0,56.5,46.2,52.0,46.7,43.0,93,72,45,30.12,29.89,19,3,19,0.00
2014-3-11,76.7,61.1,42.0,59.7,52.1,40.4,99,75,48,29.89,29.64,24,3,24,0.04
2014-3-12,65.4,52.8,38.4,60.5,46.9,27.0,97,81,62,30.05,29.54,27,10,39,0.02
2014-3-13,52.4,44.0,32.8,31.3,28.0,24.9,83,55,37,30.24,30.05,23,4,23,0.00
2014-3-14,65.7,52.4,35.6,39.4,32.7,27.9,77,49,30,30.26,30.05,26,4,26,0.00
2014-3-15,67.1,58.5,45.6,47.1,43.6,38.4,87,58,46,30.11,29.97,13,1,13,0.00
2014-3-16,64.7,60.7,52.8,57.8,51.5,45.7,99,75,50,29.97,29.57,15,1,16,1.50
2014-3-17,57.1,42.9,40.0,56.8,42.4,39.6,100,98,95,29.84,29.60,18,3,18,0.01
2014-3-18,50.3,45.2,40.8,46.7,43.3,39.6,99,93,85,30.02,29.79,19,3,19,0.00
2014-3-19,57.3,52.2,46.8,52.6,49.2,45.7,98,90,81,30.07,29.99,20,4,20,0.00
2014-3-20,62.9,51.5,40.8,49.4,36.9,22.0,99,63,21,30.16,30.05,16,3,16,0.01
2014-3-21,68.6,52.9,32.2,41.8,32.8,28.3,96,53,22,30.13,29.97,9,2,13,0.00
2014-3-22,72.8,61.6,53.9,53.7,46.0,32.0,83,57,38,30.02,29.94,13,2,13,0.00
2014-3-23,56.7,49.6,40.4,48.8,40.8,30.9,96,73,42,30.21,29.93,22,5,22,0.26
2014-3-24,59.0,47.5,30.3,32.6,29.3,25.5,89,53,31,30.23,30.00,18,3,18,0.00
2014-3-25,56.8,47.0,32.8,29.5,25.1,15.8,57,43,35,30.24,29.96,30,8,30,0.00
2014-3-26,52.2,38.8,26.7,25.7,19.1,15.6,82,48,24,30.39,30.23,16,2,16,0.00
2014-3-27,67.5,53.5,38.0,50.6,29.0,18.7,82,41,22,30.25,30.00,24,6,24,0.07
2014-3-28,63.3,58.0,54.4,58.7,55.6,50.8,97,92,81,30.07,29.91,26,5,30,0.19
2014-3-29,61.2,53.9,44.7,58.7,51.5,39.8,99,92,79,30.12,29.73,30,7,30,0.38
2014-3-30,62.5,50.0,41.2,42.5,37.2,33.1,84,64,35,30.21,30.09,16,5,24,0.00
2014-3-31,76.8,56.5,33.2,41.5,33.6,23.1,96,51,14,30.19,30.03,6,1,10,0.00
2014-4-1,81.3,68.2,55.2,45.0,37.4,21.9,55,35,12,30.11,29.96,16,3,16,0.00
2014-4-2,78.5,66.1,51.4,59.7,53.6,42.6,82,65,47,30.09,29.98,19,2,19,0.00
2014-4-3,77.0,68.4,61.5,64.9,61.7,58.1,94,80,61,29.99,29.86,22,4,22,0.00
2014-4-4,66.1,60.8,54.2,62.1,56.8,45.0,96,87,71,29.99,29.77,15,5,24,0.22
2014-4-5,61.2,51.7,42.5,45.0,40.7,37.7,89,68,45,30.11,29.99,18,3,18,0.00
2014-4-6,62.1,52.9,46.4,53.6,46.4,40.5,97,80,54,30.04,29.73,21,3,21,0.76
2014-4-7,69.8,55.1,48.8,64.9,52.4,44.7,98,91,75,29.86,29.55,23,7,25,1.75
2014-4-8,63.6,53.3,43.1,47.0,43.7,41.0,94,72,46,29.87,29.71,19,5,19,0.00
2014-4-9,66.2,57.1,47.0,47.5,40.9,34.8,92,58,33,30.14,29.87,20,4,20,0.00
2014-4-10,74.8,60.1,41.7,47.6,42.2,37.7,91,55,31,30.22,30.08,21,4,21,0.00
2014-4-11,74.1,62.5,50.9,55.0,49.5,42.6,82,64,45,30.19,30.05,18,3,18,0.00
2014-4-12,78.5,66.1,50.4,60.7,53.5,48.1,94,66,43,30.17,30.01,18,3,18,0.00
2014-4-13,79.3,68.9,54.6,60.7,54.2,46.6,88,61,35,30.07,29.85,25,5,25,0.00
2014-4-14,70.4,63.9,59.0,63.0,59.4,55.7,97,86,63,29.92,29.71,19,4,26,0.62
2014-4-15,60.1,44.5,36.8,59.2,37.9,27.6,98,79,50,30.22,29.63,27,7,27,0.20
2014-4-16,62.9,47.4,30.7,38.1,31.6,26.5,85,57,35,30.28,30.16,18,3,18,0.00
2014-4-17,67.4,56.2,44.4,48.3,41.0,32.8,69,57,44,30.36,30.22,27,4,27,0.00
2014-4-18,59.6,56.3,52.2,50.5,45.8,39.8,89,68,56,30.26,30.12,22,3,22,0.01
2014-4-19,71.5,59.6,50.6,51.1,46.5,40.9,94,65,36,30.13,30.08,30,5,30,0.00
2014-4-20,77.2,62.3,46.0,53.8,49.0,43.8,95,65,38,30.22,30.06,16,2,16,0.00
2014-4-21,77.4,65.0,51.2,56.0,51.7,46.0,93,64,42,30.13,29.91,15,2,15,0.00
2014-4-22,69.9,63.7,60.1,65.7,60.8,56.0,98,91,76,29.91,29.80,10,1,10,0.42
2014-4-23,74.4,62.1,49.2,60.2,46.5,39.9,93,61,30,29.99,29.85,15,2,15,0.00
2014-4-24,80.0,63.9,41.8,59.5,48.6,40.5,96,61,36,29.99,29.78,16,3,16,0.00
2014-4-25,74.6,66.6,56.5,62.1,58.5,53.4,92,76,53,29.96,29.71,19,5,21,0.18
2014-4-26,80.9,65.5,46.6,58.0,50.5,43.6,99,64,30,30.00,29.90,13,2,13,0.00
2014-4-27,75.9,65.4,55.9,66.0,60.6,53.2,96,85,65,29.94,29.79,19,3,19,0.31
2014-4-28,79.1,71.0,64.3,70.1,67.0,62.6,97,88,71,29.82,29.58,23,6,25,0.49
2014-4-29,76.7,70.1,64.2,68.4,65.5,62.5,98,86,67,29.77,29.55,25,5,25,1.88
2014-4-30,71.7,68.0,55.4,65.1,59.8,48.3,98,76,55,29.97,29.69,22,5,24,0.09
2014-5-1,66.0,56.3,47.0,48.4,45.2,41.7,94,68,45,30.05,29.92,18,3,18,0.00
2014-5-2,68.7,58.4,47.0,50.7,45.7,40.5,97,66,42,29.98,29.89,13,2,15,0.00
2014-5-3,75.8,64.2,43.7,51.7,47.6,42.3,97,58,35,30.02,29.94,21,3,21,0.00
2014-5-4,83.2,69.2,52.6,56.6,52.9,48.6,90,59,34,30.08,29.95,18,2,18,0.00
2014-5-5,84.0,72.4,58.5,62.5,57.1,53.9,88,60,39,30.00,29.86,21,3,21,0.00
2014-5-6,84.0,70.4,55.6,63.0,57.6,53.6,95,67,40,29.95,29.87,15,2,15,0.00
2014-5-7,82.8,70.3,55.5,66.2,59.7,54.1,97,71,43,30.05,29.93,15,2,15,0.00
2014-5-8,83.0,73.2,58.9,65.4,61.4,56.3,95,68,47,30.14,30.01,23,3,23,0.00
2014-5-9,75.1,69.2,64.3,70.5,64.8,62.1,95,86,71,30.05,29.96,19,4,19,0.02
2014-5-10,74.3,68.2,62.9,68.4,64.8,61.8,97,89,77,30.06,29.95,18,2,18,0.00
2014-5-11,82.6,72.7,61.7,72.4,68.4,60.8,99,87,63,30.09,29.98,9,2,13,0.01
2014-5-12,83.0,75.2,67.6,71.5,67.0,62.8,96,77,52,30.11,30.02,20,3,20,0.00
2014-5-13,84.5,75.5,66.8,70.7,66.5,63.4,95,75,51,30.08,29.98,19,3,19,0.00
2014-5-14,76.0,69.4,64.0,70.9,66.1,62.8,98,90,79,30.02,29.84,20,3,20,0.74
2014-5-15,63.9,55.4,47.4,63.0,50.2,45.1,98,84,59,30.10,29.86,20,5,20,0.02
2014-5-16,64.8,54.8,44.3,52.5,44.1,36.0,98,71,36,30.10,30.02,18,3,20,0.00
2014-5-17,66.8,55.6,47.2,57.4,50.9,43.0,96,85,65,30.24,30.08,10,1,10,0.13
2014-5-18,64.0,57.7,54.0,60.6,56.4,53.3,98,96,86,30.22,30.10,11,1,11,0.75
2014-5-19,75.9,63.1,50.0,65.8,58.5,49.5,99,86,65,30.24,30.12,9,1,9,0.01
2014-5-20,82.1,70.3,60.3,66.2,59.9,53.4,95,72,39,30.20,30.05,20,2,20,0.00
2014-5-21,83.6,73.5,62.8,69.5,63.5,59.7,94,73,46,30.14,30.03,20,4,20,0.00
2014-5-22,85.3,77.6,59.9,70.1,67.4,58.5,98,72,56,30.11,30.00,22,4,22,0.00
2014-5-23,85.8,74.4,65.8,70.2,66.5,63.3,96,78,53,30.06,29.98,10,2,12,0.00
2014-5-24,83.8,73.2,61.6,71.3,66.1,60.2,98,80,55,30.08,29.99,8,1,12,0.00
2014-5-25,86.2,75.0,63.2,73.8,66.0,51.1,99,77,32,30.08,30.00,12,1,12,0.00
2014-5-26,84.8,73.7,65.2,74.9,68.4,63.0,97,84,62,30.16,30.02,13,1,13,0.55
2014-5-27,82.3,74.3,67.4,73.7,69.0,65.6,95,84,64,30.09,29.95,11,2,11,0.00
2014-5-28,82.9,72.6,63.0,72.2,67.4,62.1,99,85,62,30.00,29.92,19,2,19,0.00
2014-5-29,79.5,70.6,65.0,72.2,67.2,63.2,97,89,75,30.00,29.91,19,1,19,0.05
2014-5-30,83.2,72.7,66.8,73.6,68.7,65.9,98,88,66,30.02,29.96,14,1,14,0.01
2014-5-31,87.0,74.9,63.8,73.2,67.4,63.0,99,80,48,30.06,29.94,12,1,13,0.00
2014-6-1,80.0,73.7,68.6,72.4,68.3,65.1,96,84,69,30.12,30.04,22,4,22,0.00
2014-6-2,78.0,71.5,67.7,65.7,63.2,58.3,85,76,59,30.16,30.09,16,3,16,0.00
2014-6-3,82.7,74.5,63.3,73.2,70.1,62.4,99,87,68,30.08,29.94,8,1,11,0.00
2014-6-4,80.7,72.0,68.2,74.6,69.8,67.1,99,93,77,29.97,29.91,13,2,13,0.00
2014-6-5,87.5,74.9,65.5,75.9,69.6,64.8,98,85,64,29.92,29.72,32,4,32,0.09
2014-6-6,83.7,71.1,63.8,75.4,68.7,63.2,99,93,73,29.95,29.76,19,2,19,0.67
2014-6-7,86.6,76.9,66.6,75.2,70.4,65.6,98,82,56,29.98,29.83,25,1,25,0.79
2014-6-8,82.3,73.0,65.0,73.8,69.0,64.3,99,88,70,29.97,29.81,13,2,13,0.12
2014-6-9,83.3,72.0,65.4,74.2,68.9,64.8,99,90,72,29.93,29.80,26,2,26,1.12
2014-6-10,82.2,69.3,65.5,76.4,68.0,64.9,99,96,78,29.90,29.79,26,3,26,0.43
2014-6-11,75.3,68.9,66.0,70.5,66.9,65.0,98,94,79,29.84,29.75,15,3,15,0.09
2014-6-12,82.1,72.2,65.6,70.8,67.8,64.9,99,87,64,29.90,29.78,14,1,14,0.00
2014-6-13,81.3,72.1,65.9,72.2,67.7,64.0,99,86,66,29.93,29.81,11,2,16,0.14
2014-6-14,84.8,73.1,61.1,72.2,67.1,60.5,99,83,59,30.00,29.91,9,1,9,0.00
2014-6-15,87.1,76.9,64.7,74.5,69.2,63.8,99,79,52,30.08,29.95,10,1,10,0.00
2014-6-16,88.6,77.5,65.6,73.5,68.5,64.5,99,76,46,30.16,30.03,6,1,10,0.00
2014-6-17,90.0,79.2,67.1,75.8,71.0,66.2,98,78,51,30.14,30.01,9,0,9,0.00
2014-6-18,87.5,75.8,68.8,77.5,71.9,67.9,99,89,63,30.11,30.02,10,0,10,0.11
2014-6-19,89.7,78.0,68.8,76.7,72.5,68.2,99,84,60,30.11,30.00,4,0,11,0.00
2014-6-20,89.2,77.9,69.3,77.7,72.5,68.6,99,85,59,30.05,29.93,8,1,12,0.00
2014-6-21,88.5,77.7,69.7,77.1,71.9,68.2,97,84,60,29.97,29.83,20,2,20,0.29
2014-6-22,87.8,76.9,67.9,75.5,70.5,67.3,99,82,53,29.92,29.80,9,1,9,0.00
2014-6-23,88.1,75.6,66.9,76.1,70.6,66.0,99,85,58,29.97,29.85,19,1,19,0.01
2014-6-24,83.6,73.7,69.8,75.6,70.5,66.8,98,90,70,30.02,29.92,19,2,28,0.07
2014-6-25,84.9,76.0,70.7,75.3,71.7,69.3,98,87,65,30.04,29.93,13,2,13,0.06
2014-6-26,77.2,72.3,68.4,73.9,70.5,67.3,98,94,80,30.02,29.91,25,1,25,1.88
2014-6-27,83.4,75.2,69.3,75.4,71.6,68.7,99,89,67,30.08,29.98,22,1,22,0.06
2014-6-28,84.7,75.8,68.5,75.3,70.9,67.3,99,86,63,30.14,30.03,20,1,22,0.55
2014-6-29,87.9,76.3,69.1,77.1,71.7,67.8,97,86,62,30.15,30.01,24,2,24,0.00
2014-6-30,87.5,77.7,70.0,78.9,73.7,68.5,97,88,70,30.05,29.89,15,1,15,0.00
2014-7-1,89.7,79.3,69.6,78.2,73.6,68.7,99,84,62,29.98,29.84,13,1,13,0.01
2014-7-2,89.3,80.3,72.0,76.0,72.1,67.5,96,78,52,29.96,29.88,12,2,12,0.01
2014-7-3,80.9,74.9,64.8,72.2,64.8,60.1,93,72,51,30.07,29.90,18,3,18,0.00
2014-7-4,80.3,70.4,61.3,65.5,61.5,56.5,94,75,55,30.16,30.07,20,3,20,0.00
2014-7-5,85.5,72.1,57.6,67.9,61.2,55.6,94,71,47,30.18,30.07,23,2,23,0.00
2014-7-6,87.3,75.9,65.7,72.9,66.1,59.8,90,72,50,30.09,29.97,9,1,12,0.00
2014-7-7,88.5,77.2,65.1,72.4,67.3,60.1,98,74,41,30.01,29.91,12,2,12,0.00
2014-7-8,87.8,77.5,71.0,74.6,70.5,66.9,96,80,59,30.02,29.90,28,3,28,0.07
2014-7-9,85.0,75.5,69.5,73.2,70.5,68.3,97,85,63,30.00,29.92,13,2,13,0.06
2014-7-10,86.3,76.2,68.0,75.6,71.0,67.1,98,85,62,30.05,29.95,8,1,11,0.00
2014-7-11,87.3,78.0,67.3,72.8,70.0,66.3,98,78,57,30.11,30.02,11,2,12,0.00
2014-7-12,89.8,79.7,68.5,75.7,72.0,67.3,97,79,55,30.14,30.03,10,1,10,0.00
2014-7-13,88.7,78.3,68.3,76.0,72.1,67.3,98,82,58,30.08,29.96,14,1,14,0.00
2014-7-14,91.7,79.9,71.5,77.5,72.7,69.3,95,80,54,29.99,29.83,27,3,27,0.33
2014-7-15,80.9,72.7,65.2,74.6,69.2,60.9,97,89,71,29.92,29.79,12,2,20,0.41
2014-7-16,77.5,68.5,58.7,62.6,59.2,56.4,94,74,51,29.96,29.87,15,2,15,0.00
2014-7-17,78.2,68.7,57.9,65.9,60.6,55.9,96,77,51,30.01,29.94,10,1,13,0.00
2014-7-18,71.3,68.1,65.3,69.5,66.4,62.9,97,94,90,30.07,29.96,14,1,14,0.52
2014-7-19,82.8,73.8,67.6,76.2,71.0,66.5,98,91,79,29.99,29.90,14,2,14,0.08
2014-7-20,82.5,74.5,69.6,74.9,71.4,68.4,98,90,74,29.99,29.93,9,0,9,0.00
2014-7-21,82.3,74.6,69.7,76.2,72.3,68.8,98,93,76,30.03,29.93,18,1,18,0.77
2014-7-22,84.2,76.5,71.0,75.5,72.5,70.1,98,88,70,30.08,29.99,13,1,13,0.00
2014-7-23,86.8,76.1,69.0,76.9,72.4,68.1,98,89,66,30.04,29.91,12,0,12,0.05
2014-7-24,83.7,75.9,69.8,75.5,71.6,68.5,98,87,66,29.95,29.88,15,2,15,0.00
2014-7-25,85.5,74.2,63.6,72.8,67.6,62.8,98,82,56,30.02,29.92,10,0,10,0.01
2014-7-26,88.2,76.0,64.2,72.2,68.2,63.2,99,79,51,30.02,29.93,0,0,0,0.00
2014-7-27,91.0,80.8,68.8,79.0,73.3,67.4,98,79,58,29.98,29.85,21,4,21,0.00
2014-7-28,83.7,78.3,69.9,75.9,69.1,63.3,94,75,54,29.95,29.83,21,3,21,0.00
2014-7-29,75.9,68.9,57.8,64.4,60.2,53.8,93,75,49,30.03,29.93,14,2,14,0.00
2014-7-30,78.7,67.7,54.9,65.3,59.3,54.1,98,77,49,30.06,30.00,15,2,15,0.00
2014-7-31,77.4,70.2,64.6,69.7,65.3,61.4,94,85,73,30.05,29.99,9,1,9,0.00
2014-8-1,83.8,73.3,64.0,72.0,67.8,62.9,98,84,57,30.04,29.94,12,1,12,0.00
2014-8-2,84.1,73.4,65.9,72.4,68.1,64.6,97,84,63,30.05,29.96,19,2,19,0.00
2014-8-3,85.7,74.8,65.0,72.5,68.2,64.1,98,82,51,30.06,29.94,14,2,14,0.00
2014-8-4,86.2,74.5,61.6,69.3,65.2,58.9,98,76,41,30.05,29.95,13,2,13,0.00
2014-8-5,87.7,74.7,59.7,68.9,62.7,57.4,97,70,37,30.06,29.97,12,1,12,0.00
2014-8-6,89.9,78.1,64.0,72.1,68.0,61.6,94,73,51,30.02,29.91,11,1,11,0.00
2014-8-7,92.6,81.4,68.9,75.2,70.8,66.6,97,73,47,29.97,29.84,26,1,26,0.00
2014-8-8,89.0,77.6,68.1,77.5,71.9,67.5,98,84,60,29.98,29.88,19,2,19,0.08
2014-8-9,86.3,75.0,70.6,77.7,72.5,69.7,97,92,72,29.99,29.89,18,1,22,0.10
2014-8-10,86.5,76.2,71.8,77.9,73.3,70.7,97,91,70,29.99,29.89,15,1,15,0.07
2014-8-11,87.6,77.4,71.0,78.7,73.6,70.1,98,89,67,29.96,29.83,11,1,16,0.01
2014-8-12,86.5,77.7,69.1,74.7,71.5,64.4,97,82,59,29.90,29.79,16,2,16,0.00
2014-8-13,79.5,70.3,62.0,65.0,62.0,58.1,94,76,57,30.01,29.90,15,2,15,0.00
2014-8-14,81.4,69.7,58.2,67.3,62.7,57.4,98,80,58,30.04,29.94,11,1,13,0.00
2014-8-15,84.3,72.1,60.4,69.4,63.6,59.5,98,77,46,30.02,29.93,11,1,11,0.00
2014-8-16,87.8,75.3,60.8,70.7,65.4,60.0,98,74,44,30.01,29.92,10,1,10,0.00
2014-8-17,91.1,77.5,64.9,75.5,69.8,63.2,95,78,52,29.99,29.87,21,2,21,0.00
2014-8-18,84.7,76.4,72.9,76.4,72.4,69.7,94,88,73,29.94,29.82,20,2,20,0.00
2014-8-19,87.0,78.5,70.3,77.1,73.2,69.4,98,84,65,29.90,29.81,14,2,14,0.12
2014-8-20,91.0,79.8,71.6,79.8,73.4,68.3,96,82,61,30.07,29.88,26,3,26,0.00
2014-8-21,91.4,79.7,66.9,78.1,72.5,65.7,97,80,58,30.09,30.00,12,1,12,0.00
2014-8-22,91.2,80.7,70.3,77.5,73.6,69.4,98,81,56,30.08,29.93,11,2,14,0.00
2014-8-23,91.0,79.5,69.8,78.2,73.9,68.8,98,84,58,29.98,29.86,18,1,21,0.00
2014-8-24,89.5,80.3,71.9,78.9,74.6,70.8,97,83,64,29.94,29.83,19,3,19,0.00
2014-8-25,83.3,76.4,70.1,72.2,69.5,67.1,95,80,65,30.02,29.93,15,2,15,0.00
2014-8-26,84.5,75.1,67.7,69.9,66.3,61.7,95,75,57,30.11,29.98,14,2,14,0.00
2014-8-27,87.5,74.9,62.0,68.9,65.6,61.1,98,76,45,30.07,29.96,13,1,13,0.00
2014-8-28,90.5,76.9,64.7,71.6,65.0,57.5,98,71,34,30.01,29.90,11,0,11,0.00
2014-8-29,90.8,77.1,60.7,71.0,62.5,58.2,96,65,35,30.01,29.94,15,1,15,0.00
2014-8-30,84.8,75.9,67.8,76.9,71.0,63.8,95,85,71,30.06,29.96,29,2,29,0.09
2014-8-31,84.9,75.3,69.1,76.9,72.6,68.5,98,92,76,30.09,30.01,6,1,15,0.05
2014-9-1,89.8,79.3,72.0,76.1,73.1,70.8,96,83,57,30.07,29.95,5,1,14,0.60
2014-9-2,91.0,80.2,71.1,76.7,72.9,70.1,97,80,54,30.05,29.87,5,2,15,0.01
2014-9-3,86.2,76.2,71.4,75.6,72.7,70.5,98,89,68,30.01,29.91,6,1,16,0.77
2014-9-4,86.1,76.1,70.8,75.8,72.7,70.2,98,90,66,30.09,30.00,5,1,11,0.01
2014-9-5,87.3,76.6,71.0,75.8,72.7,68.0,98,88,64,30.12,29.99,13,1,14,1.03
2014-9-6,88.3,80.2,68.8,76.1,73.5,68.5,99,81,62,30.03,29.91,8,0,8,1.74
2014-9-7,86.5,76.1,69.3,75.8,71.5,68.4,98,86,59,29.98,29.88,14,2,15,2.48
2014-9-8,71.2,70.4,69.3,70.1,69.4,68.4,97,97,95,29.95,29.93,7,0,7,0.00
2014-9-9,86.4,76.9,72.4,75.6,72.7,70.6,96,87,67,30.05,29.93,4,2,11,0.00
2014-9-10,85.7,76.8,69.2,75.8,71.8,68.3,97,85,67,30.01,29.88,7,3,15,0.00
2014-9-11,89.7,81.0,72.4,77.7,74.1,71.2,96,81,60,29.99,29.88,9,2,18,0.00
2014-9-12,85.3,77.2,71.7,77.8,73.7,70.4,98,89,72,30.01,29.90,11,1,11,0.09
2014-9-13,74.0,69.3,62.0,70.4,66.4,60.3,97,90,79,30.14,29.99,16,4,16,0.00
2014-9-14,83.1,70.1,58.6,71.2,64.9,57.8,98,85,61,30.17,30.06,7,1,11,0.00
2014-9-15,80.5,72.4,67.5,74.4,70.2,66.8,99,93,80,30.14,30.02,8,1,10,0.00
2014-9-16,77.7,71.8,70.5,72.6,70.6,69.8,99,96,80,30.06,30.02,10,1,10,0.02